sensor_id;sensor_type;location;lat;lon;timestamp;P1;durP1;ratioP1;P2;durP2;ratioP2
2892;SDS011;1456;51.840;12.184;2023-04-22T00:00:02;4.37;;;4.27;;
2892;SDS011;1456;51.840;12.184;2023-04-22T00:02:29;5.30;;;5.10;;
2892;SDS011;1456;51.840;12.184;2023-04-22T00:04:56;3.77;;;3.67;;
2892;SDS011;1456;51.840;12.184;2023-04-22T00:07:22;4.30;;;4.10;;
2892;SDS011;1456;51.840;12.184;2023-04-22T00:09:48;4.30;;;4.10;;
2892;SDS011;1456;51.840;12.184;2023-04-22T00:12:14;3.97;;;3.73;;
2892;SDS011;1456;51.840;12.184;2023-04-22T00:14:39;4.00;;;3.80;;
2892;SDS011;1456;51.840;12.184;2023-04-22T00:17:06;3.73;;;3.43;;
2892;SDS011;1456;51.840;12.184;2023-04-22T00:19:33;4.90;;;4.70;;
2892;SDS011;1456;51.840;12.184;2023-04-22T00:21:58;4.27;;;4.00;;
2892;SDS011;1456;51.840;12.184;2023-04-22T00:24:24;4.13;;;4.03;;
2892;SDS011;1456;51.840;12.184;2023-04-22T00:26:59;3.60;;;3.43;;
2892;SDS011;1456;51.840;12.184;2023-04-22T00:29:27;4.87;;;4.67;;
2892;SDS011;1456;51.840;12.184;2023-04-22T00:31:52;3.70;;;3.60;;
2892;SDS011;1456;51.840;12.184;2023-04-22T00:34:18;3.30;;;3.30;;
2892;SDS011;1456;51.840;12.184;2023-04-22T00:36:44;4.77;;;4.57;;
2892;SDS011;1456;51.840;12.184;2023-04-22T00:39:11;2.90;;;2.80;;
2892;SDS011;1456;51.840;12.184;2023-04-22T00:41:39;2.70;;;2.70;;
2892;SDS011;1456;51.840;12.184;2023-04-22T00:44:07;3.50;;;3.50;;
2892;SDS011;1456;51.840;12.184;2023-04-22T00:46:36;3.77;;;3.60;;
2892;SDS011;1456;51.840;12.184;2023-04-22T00:49:03;4.40;;;4.20;;
2892;SDS011;1456;51.840;12.184;2023-04-22T00:51:29;2.80;;;2.80;;
2892;SDS011;1456;51.840;12.184;2023-04-22T00:53:55;3.20;;;3.10;;
2892;SDS011;1456;51.840;12.184;2023-04-22T00:56:23;2.30;;;2.20;;
2892;SDS011;1456;51.840;12.184;2023-04-22T00:58:50;3.53;;;3.23;;
2892;SDS011;1456;51.840;12.184;2023-04-22T01:01:18;3.63;;;3.40;;
2892;SDS011;1456;51.840;12.184;2023-04-22T01:03:45;4.43;;;4.23;;
2892;SDS011;1456;51.840;12.184;2023-04-22T01:06:13;2.83;;;2.73;;
2892;SDS011;1456;51.840;12.184;2023-04-22T01:08:46;3.23;;;3.10;;
2892;SDS011;1456;51.840;12.184;2023-04-22T01:11:12;2.93;;;2.83;;
2892;SDS011;1456;51.840;12.184;2023-04-22T01:13:39;3.07;;;2.97;;
2892;SDS011;1456;51.840;12.184;2023-04-22T01:16:06;4.00;;;2.90;;
2892;SDS011;1456;51.840;12.184;2023-04-22T01:18:33;2.07;;;1.97;;
2892;SDS011;1456;51.840;12.184;2023-04-22T01:21:00;2.87;;;2.87;;
2892;SDS011;1456;51.840;12.184;2023-04-22T01:23:27;5.80;;;2.67;;
2892;SDS011;1456;51.840;12.184;2023-04-22T01:25:55;3.10;;;2.80;;
2892;SDS011;1456;51.840;12.184;2023-04-22T01:28:22;2.60;;;2.60;;
2892;SDS011;1456;51.840;12.184;2023-04-22T01:30:49;3.70;;;3.53;;
2892;SDS011;1456;51.840;12.184;2023-04-22T01:33:16;2.87;;;2.80;;
2892;SDS011;1456;51.840;12.184;2023-04-22T01:35:42;5.10;;;4.73;;
2892;SDS011;1456;51.840;12.184;2023-04-22T01:38:08;1.90;;;1.90;;
2892;SDS011;1456;51.840;12.184;2023-04-22T01:40:35;2.10;;;2.10;;
2892;SDS011;1456;51.840;12.184;2023-04-22T01:43:02;8.10;;;2.90;;
2892;SDS011;1456;51.840;12.184;2023-04-22T01:45:29;2.43;;;2.33;;
2892;SDS011;1456;51.840;12.184;2023-04-22T01:47:56;4.03;;;2.60;;
2892;SDS011;1456;51.840;12.184;2023-04-22T01:50:22;2.43;;;2.23;;
2892;SDS011;1456;51.840;12.184;2023-04-22T01:52:49;3.30;;;3.10;;
2892;SDS011;1456;51.840;12.184;2023-04-22T01:55:30;2.77;;;1.90;;
2892;SDS011;1456;51.840;12.184;2023-04-22T01:58:01;2.10;;;2.00;;
2892;SDS011;1456;51.840;12.184;2023-04-22T02:03:00;4.10;;;3.90;;
2892;SDS011;1456;51.840;12.184;2023-04-22T02:05:26;2.33;;;2.20;;
2892;SDS011;1456;51.840;12.184;2023-04-22T02:07:54;1.77;;;1.77;;
2892;SDS011;1456;51.840;12.184;2023-04-22T02:10:21;2.60;;;1.93;;
2892;SDS011;1456;51.840;12.184;2023-04-22T02:12:47;2.90;;;2.80;;
2892;SDS011;1456;51.840;12.184;2023-04-22T02:15:14;3.90;;;2.90;;
2892;SDS011;1456;51.840;12.184;2023-04-22T02:20:10;1.67;;;1.67;;
2892;SDS011;1456;51.840;12.184;2023-04-22T02:22:37;2.57;;;2.37;;
2892;SDS011;1456;51.840;12.184;2023-04-22T02:25:04;3.20;;;3.10;;
2892;SDS011;1456;51.840;12.184;2023-04-22T02:27:34;2.03;;;1.93;;
2892;SDS011;1456;51.840;12.184;2023-04-22T02:30:04;1.40;;;1.40;;
2892;SDS011;1456;51.840;12.184;2023-04-22T02:32:30;1.63;;;1.63;;
2892;SDS011;1456;51.840;12.184;2023-04-22T02:34:56;3.03;;;1.93;;
2892;SDS011;1456;51.840;12.184;2023-04-22T02:37:23;5.53;;;2.33;;
2892;SDS011;1456;51.840;12.184;2023-04-22T02:44:47;2.50;;;2.40;;
2892;SDS011;1456;51.840;12.184;2023-04-22T02:47:16;2.23;;;2.13;;
2892;SDS011;1456;51.840;12.184;2023-04-22T02:49:42;3.23;;;1.53;;
2892;SDS011;1456;51.840;12.184;2023-04-22T02:52:14;2.50;;;2.40;;
2892;SDS011;1456;51.840;12.184;2023-04-22T02:54:40;2.00;;;1.83;;
2892;SDS011;1456;51.840;12.184;2023-04-22T02:57:05;2.50;;;2.30;;
2892;SDS011;1456;51.840;12.184;2023-04-22T02:59:31;2.47;;;2.37;;
2892;SDS011;1456;51.840;12.184;2023-04-22T03:01:58;1.20;;;1.20;;
2892;SDS011;1456;51.840;12.184;2023-04-22T03:04:23;1.67;;;1.57;;
2892;SDS011;1456;51.840;12.184;2023-04-22T03:06:50;1.73;;;1.73;;
2892;SDS011;1456;51.840;12.184;2023-04-22T03:09:17;1.10;;;1.10;;
2892;SDS011;1456;51.840;12.184;2023-04-22T03:11:43;1.10;;;1.10;;
2892;SDS011;1456;51.840;12.184;2023-04-22T03:14:09;2.00;;;1.97;;
2892;SDS011;1456;51.840;12.184;2023-04-22T03:16:46;2.10;;;1.63;;
2892;SDS011;1456;51.840;12.184;2023-04-22T03:19:11;1.63;;;1.53;;
2892;SDS011;1456;51.840;12.184;2023-04-22T03:21:40;0.93;;;0.93;;
2892;SDS011;1456;51.840;12.184;2023-04-22T03:24:14;2.13;;;2.03;;
2892;SDS011;1456;51.840;12.184;2023-04-22T03:26:41;1.20;;;1.20;;
2892;SDS011;1456;51.840;12.184;2023-04-22T03:29:08;1.60;;;1.60;;
2892;SDS011;1456;51.840;12.184;2023-04-22T03:31:34;0.77;;;0.77;;
2892;SDS011;1456;51.840;12.184;2023-04-22T03:34:02;2.63;;;1.70;;
2892;SDS011;1456;51.840;12.184;2023-04-22T03:36:29;2.77;;;1.70;;
2892;SDS011;1456;51.840;12.184;2023-04-22T03:38:56;1.63;;;1.63;;
2892;SDS011;1456;51.840;12.184;2023-04-22T03:41:22;1.70;;;1.70;;
2892;SDS011;1456;51.840;12.184;2023-04-22T03:43:51;1.73;;;1.63;;
2892;SDS011;1456;51.840;12.184;2023-04-22T03:46:17;1.30;;;1.20;;
2892;SDS011;1456;51.840;12.184;2023-04-22T03:48:42;3.90;;;1.80;;
2892;SDS011;1456;51.840;12.184;2023-04-22T03:51:08;0.80;;;0.80;;
2892;SDS011;1456;51.840;12.184;2023-04-22T03:53:36;2.80;;;2.70;;
2892;SDS011;1456;51.840;12.184;2023-04-22T03:56:01;1.43;;;1.33;;
2892;SDS011;1456;51.840;12.184;2023-04-22T03:58:29;1.17;;;1.17;;
2892;SDS011;1456;51.840;12.184;2023-04-22T04:00:57;7.93;;;2.10;;
2892;SDS011;1456;51.840;12.184;2023-04-22T04:03:24;2.20;;;1.83;;
2892;SDS011;1456;51.840;12.184;2023-04-22T04:05:51;3.03;;;1.50;;
2892;SDS011;1456;51.840;12.184;2023-04-22T04:08:17;2.33;;;2.23;;
2892;SDS011;1456;51.840;12.184;2023-04-22T04:10:43;6.63;;;2.10;;
2892;SDS011;1456;51.840;12.184;2023-04-22T04:13:10;1.67;;;1.50;;
2892;SDS011;1456;51.840;12.184;2023-04-22T04:15:41;1.53;;;1.43;;
2892;SDS011;1456;51.840;12.184;2023-04-22T04:18:08;6.83;;;2.30;;
2892;SDS011;1456;51.840;12.184;2023-04-22T04:20:35;2.50;;;1.83;;
2892;SDS011;1456;51.840;12.184;2023-04-22T04:23:01;1.53;;;1.53;;
2892;SDS011;1456;51.840;12.184;2023-04-22T04:25:32;1.87;;;1.83;;
2892;SDS011;1456;51.840;12.184;2023-04-22T04:28:08;1.70;;;1.60;;
2892;SDS011;1456;51.840;12.184;2023-04-22T04:30:36;1.17;;;1.17;;
2892;SDS011;1456;51.840;12.184;2023-04-22T04:33:03;4.83;;;2.30;;
2892;SDS011;1456;51.840;12.184;2023-04-22T04:35:34;1.33;;;1.33;;
2892;SDS011;1456;51.840;12.184;2023-04-22T04:38:02;3.50;;;1.23;;
2892;SDS011;1456;51.840;12.184;2023-04-22T04:40:31;1.33;;;1.30;;
2892;SDS011;1456;51.840;12.184;2023-04-22T04:42:57;2.43;;;1.73;;
2892;SDS011;1456;51.840;12.184;2023-04-22T04:45:26;1.10;;;1.10;;
2892;SDS011;1456;51.840;12.184;2023-04-22T04:47:53;0.87;;;0.87;;
2892;SDS011;1456;51.840;12.184;2023-04-22T04:50:19;1.50;;;1.40;;
2892;SDS011;1456;51.840;12.184;2023-04-22T04:52:46;1.40;;;1.30;;
2892;SDS011;1456;51.840;12.184;2023-04-22T04:55:13;1.20;;;1.20;;
2892;SDS011;1456;51.840;12.184;2023-04-22T04:57:39;1.60;;;1.50;;
2892;SDS011;1456;51.840;12.184;2023-04-22T05:00:05;1.23;;;1.23;;
2892;SDS011;1456;51.840;12.184;2023-04-22T05:02:33;1.87;;;1.77;;
2892;SDS011;1456;51.840;12.184;2023-04-22T05:04:59;1.30;;;1.20;;
2892;SDS011;1456;51.840;12.184;2023-04-22T05:07:28;2.40;;;1.77;;
2892;SDS011;1456;51.840;12.184;2023-04-22T05:09:54;2.50;;;0.97;;
2892;SDS011;1456;51.840;12.184;2023-04-22T05:12:19;2.33;;;2.20;;
2892;SDS011;1456;51.840;12.184;2023-04-22T05:14:45;4.83;;;2.60;;
2892;SDS011;1456;51.840;12.184;2023-04-22T05:17:12;5.50;;;2.00;;
2892;SDS011;1456;51.840;12.184;2023-04-22T05:19:38;2.20;;;2.00;;
2892;SDS011;1456;51.840;12.184;2023-04-22T05:22:04;2.40;;;2.13;;
2892;SDS011;1456;51.840;12.184;2023-04-22T05:24:31;1.23;;;1.13;;
2892;SDS011;1456;51.840;12.184;2023-04-22T05:26:56;2.33;;;2.23;;
2892;SDS011;1456;51.840;12.184;2023-04-22T05:29:22;4.93;;;2.30;;
2892;SDS011;1456;51.840;12.184;2023-04-22T05:31:48;5.07;;;4.63;;
2892;SDS011;1456;51.840;12.184;2023-04-22T05:34:13;2.03;;;1.93;;
2892;SDS011;1456;51.840;12.184;2023-04-22T05:39:09;1.63;;;1.10;;
2892;SDS011;1456;51.840;12.184;2023-04-22T05:41:34;2.73;;;2.53;;
2892;SDS011;1456;51.840;12.184;2023-04-22T05:44:00;1.97;;;1.87;;
2892;SDS011;1456;51.840;12.184;2023-04-22T05:46:25;2.97;;;2.87;;
2892;SDS011;1456;51.840;12.184;2023-04-22T05:48:51;2.07;;;2.07;;
2892;SDS011;1456;51.840;12.184;2023-04-22T05:51:18;3.03;;;2.90;;
2892;SDS011;1456;51.840;12.184;2023-04-22T05:53:44;5.77;;;3.47;;
2892;SDS011;1456;51.840;12.184;2023-04-22T05:56:10;2.50;;;2.40;;
2892;SDS011;1456;51.840;12.184;2023-04-22T05:58:35;3.73;;;3.63;;
2892;SDS011;1456;51.840;12.184;2023-04-22T06:01:02;2.30;;;2.30;;
2892;SDS011;1456;51.840;12.184;2023-04-22T06:03:27;1.77;;;1.77;;
2892;SDS011;1456;51.840;12.184;2023-04-22T06:05:54;2.53;;;2.43;;
2892;SDS011;1456;51.840;12.184;2023-04-22T06:08:22;4.33;;;4.13;;
2892;SDS011;1456;51.840;12.184;2023-04-22T06:10:48;3.37;;;3.27;;
2892;SDS011;1456;51.840;12.184;2023-04-22T06:13:14;3.00;;;2.80;;
2892;SDS011;1456;51.840;12.184;2023-04-22T06:15:42;2.80;;;2.73;;
2892;SDS011;1456;51.840;12.184;2023-04-22T06:18:08;3.97;;;3.77;;
2892;SDS011;1456;51.840;12.184;2023-04-22T06:20:35;5.77;;;5.40;;
2892;SDS011;1456;51.840;12.184;2023-04-22T06:23:01;3.90;;;3.80;;
2892;SDS011;1456;51.840;12.184;2023-04-22T06:25:29;2.70;;;2.60;;
2892;SDS011;1456;51.840;12.184;2023-04-22T06:27:57;4.17;;;4.00;;
2892;SDS011;1456;51.840;12.184;2023-04-22T06:30:25;2.53;;;2.53;;
2892;SDS011;1456;51.840;12.184;2023-04-22T06:32:51;2.90;;;2.70;;
2892;SDS011;1456;51.840;12.184;2023-04-22T06:35:21;6.63;;;5.37;;
2892;SDS011;1456;51.840;12.184;2023-04-22T06:37:47;3.97;;;3.90;;
2892;SDS011;1456;51.840;12.184;2023-04-22T06:40:14;4.93;;;4.80;;
2892;SDS011;1456;51.840;12.184;2023-04-22T06:42:41;4.33;;;4.23;;
2892;SDS011;1456;51.840;12.184;2023-04-22T06:45:06;4.53;;;4.43;;
2892;SDS011;1456;51.840;12.184;2023-04-22T06:47:33;4.77;;;4.77;;
2892;SDS011;1456;51.840;12.184;2023-04-22T06:50:01;6.10;;;5.60;;
2892;SDS011;1456;51.840;12.184;2023-04-22T06:52:28;6.17;;;4.60;;
2892;SDS011;1456;51.840;12.184;2023-04-22T06:54:55;4.83;;;4.73;;
2892;SDS011;1456;51.840;12.184;2023-04-22T06:57:21;5.17;;;5.03;;
2892;SDS011;1456;51.840;12.184;2023-04-22T06:59:46;7.40;;;6.70;;
2892;SDS011;1456;51.840;12.184;2023-04-22T07:02:12;4.80;;;4.80;;
2892;SDS011;1456;51.840;12.184;2023-04-22T07:04:38;5.50;;;5.40;;
2892;SDS011;1456;51.840;12.184;2023-04-22T07:07:11;6.30;;;6.20;;
2892;SDS011;1456;51.840;12.184;2023-04-22T07:09:38;6.20;;;6.10;;
2892;SDS011;1456;51.840;12.184;2023-04-22T07:12:05;5.97;;;5.87;;
2892;SDS011;1456;51.840;12.184;2023-04-22T07:14:33;5.63;;;5.33;;
2892;SDS011;1456;51.840;12.184;2023-04-22T07:16:59;6.63;;;6.43;;
2892;SDS011;1456;51.840;12.184;2023-04-22T07:19:25;4.13;;;4.00;;
2892;SDS011;1456;51.840;12.184;2023-04-22T07:21:52;5.73;;;5.63;;
2892;SDS011;1456;51.840;12.184;2023-04-22T07:24:18;5.60;;;5.50;;
2892;SDS011;1456;51.840;12.184;2023-04-22T07:26:46;10.20;;;5.90;;
2892;SDS011;1456;51.840;12.184;2023-04-22T07:29:12;8.50;;;8.00;;
2892;SDS011;1456;51.840;12.184;2023-04-22T07:31:37;6.90;;;6.70;;
2892;SDS011;1456;51.840;12.184;2023-04-22T07:34:04;6.60;;;6.50;;
2892;SDS011;1456;51.840;12.184;2023-04-22T07:36:32;7.77;;;7.57;;
2892;SDS011;1456;51.840;12.184;2023-04-22T07:38:57;6.90;;;6.70;;
2892;SDS011;1456;51.840;12.184;2023-04-22T07:41:24;7.03;;;6.83;;
2892;SDS011;1456;51.840;12.184;2023-04-22T07:43:50;7.40;;;7.30;;
2892;SDS011;1456;51.840;12.184;2023-04-22T07:46:16;7.00;;;6.90;;
2892;SDS011;1456;51.840;12.184;2023-04-22T07:48:43;7.57;;;7.37;;
2892;SDS011;1456;51.840;12.184;2023-04-22T07:51:09;6.60;;;6.50;;
2892;SDS011;1456;51.840;12.184;2023-04-22T07:53:35;9.57;;;9.07;;
2892;SDS011;1456;51.840;12.184;2023-04-22T07:56:01;6.23;;;6.13;;
2892;SDS011;1456;51.840;12.184;2023-04-22T07:58:30;6.80;;;6.70;;
2892;SDS011;1456;51.840;12.184;2023-04-22T08:00:56;7.20;;;7.10;;
2892;SDS011;1456;51.840;12.184;2023-04-22T08:03:22;8.63;;;8.13;;
2892;SDS011;1456;51.840;12.184;2023-04-22T08:08:17;8.67;;;8.57;;
2892;SDS011;1456;51.840;12.184;2023-04-22T08:10:43;8.83;;;8.73;;
2892;SDS011;1456;51.840;12.184;2023-04-22T08:13:10;8.27;;;8.07;;
2892;SDS011;1456;51.840;12.184;2023-04-22T08:15:39;7.70;;;7.60;;
2892;SDS011;1456;51.840;12.184;2023-04-22T08:18:05;8.13;;;8.03;;
2892;SDS011;1456;51.840;12.184;2023-04-22T08:20:31;9.47;;;9.27;;
2892;SDS011;1456;51.840;12.184;2023-04-22T08:22:56;9.27;;;9.07;;
2892;SDS011;1456;51.840;12.184;2023-04-22T08:25:24;9.37;;;9.07;;
2892;SDS011;1456;51.840;12.184;2023-04-22T08:27:50;9.00;;;8.80;;
2892;SDS011;1456;51.840;12.184;2023-04-22T08:30:16;8.20;;;8.10;;
2892;SDS011;1456;51.840;12.184;2023-04-22T08:32:42;9.90;;;9.50;;
2892;SDS011;1456;51.840;12.184;2023-04-22T08:35:09;10.50;;;10.20;;
2892;SDS011;1456;51.840;12.184;2023-04-22T08:37:34;9.60;;;9.20;;
2892;SDS011;1456;51.840;12.184;2023-04-22T08:40:07;8.87;;;8.77;;
2892;SDS011;1456;51.840;12.184;2023-04-22T08:42:33;10.07;;;9.87;;
2892;SDS011;1456;51.840;12.184;2023-04-22T08:45:07;10.23;;;9.70;;
2892;SDS011;1456;51.840;12.184;2023-04-22T08:47:34;10.70;;;10.50;;
2892;SDS011;1456;51.840;12.184;2023-04-22T08:50:08;10.90;;;10.60;;
2892;SDS011;1456;51.840;12.184;2023-04-22T08:52:34;10.13;;;9.83;;
2892;SDS011;1456;51.840;12.184;2023-04-22T08:55:00;10.70;;;10.40;;
2892;SDS011;1456;51.840;12.184;2023-04-22T08:57:28;10.70;;;10.23;;
2892;SDS011;1456;51.840;12.184;2023-04-22T08:59:54;11.23;;;10.87;;
2892;SDS011;1456;51.840;12.184;2023-04-22T09:02:21;11.70;;;11.30;;
2892;SDS011;1456;51.840;12.184;2023-04-22T09:04:49;10.37;;;10.17;;
2892;SDS011;1456;51.840;12.184;2023-04-22T09:07:23;10.93;;;10.70;;
2892;SDS011;1456;51.840;12.184;2023-04-22T09:09:53;11.43;;;11.13;;
2892;SDS011;1456;51.840;12.184;2023-04-22T09:12:23;11.27;;;10.90;;
2892;SDS011;1456;51.840;12.184;2023-04-22T09:15:05;10.50;;;10.30;;
2892;SDS011;1456;51.840;12.184;2023-04-22T09:17:32;10.43;;;10.23;;
2892;SDS011;1456;51.840;12.184;2023-04-22T09:20:08;10.40;;;10.20;;
2892;SDS011;1456;51.840;12.184;2023-04-22T09:25:04;10.20;;;10.00;;
2892;SDS011;1456;51.840;12.184;2023-04-22T09:27:33;10.73;;;10.53;;
2892;SDS011;1456;51.840;12.184;2023-04-22T09:30:00;10.13;;;9.93;;
2892;SDS011;1456;51.840;12.184;2023-04-22T09:32:27;10.23;;;10.03;;
2892;SDS011;1456;51.840;12.184;2023-04-22T09:34:53;10.90;;;10.60;;
2892;SDS011;1456;51.840;12.184;2023-04-22T09:37:20;12.03;;;11.53;;
2892;SDS011;1456;51.840;12.184;2023-04-22T09:39:49;18.70;;;18.20;;
2892;SDS011;1456;51.840;12.184;2023-04-22T09:42:19;18.87;;;18.40;;
2892;SDS011;1456;51.840;12.184;2023-04-22T09:44:49;17.17;;;16.80;;
2892;SDS011;1456;51.840;12.184;2023-04-22T09:47:20;18.63;;;18.07;;
2892;SDS011;1456;51.840;12.184;2023-04-22T09:49:58;17.27;;;16.90;;
2892;SDS011;1456;51.840;12.184;2023-04-22T09:52:28;20.23;;;19.63;;
2892;SDS011;1456;51.840;12.184;2023-04-22T09:54:57;18.50;;;18.10;;
2892;SDS011;1456;51.840;12.184;2023-04-22T09:57:25;18.60;;;18.20;;
2892;SDS011;1456;51.840;12.184;2023-04-22T09:59:52;19.33;;;18.83;;
2892;SDS011;1456;51.840;12.184;2023-04-22T10:05:00;18.83;;;18.33;;
2892;SDS011;1456;51.840;12.184;2023-04-22T10:07:26;18.90;;;18.40;;
2892;SDS011;1456;51.840;12.184;2023-04-22T10:09:56;12.03;;;11.83;;
2892;SDS011;1456;51.840;12.184;2023-04-22T10:12:22;19.03;;;18.63;;
2892;SDS011;1456;51.840;12.184;2023-04-22T10:14:49;17.47;;;17.07;;
2892;SDS011;1456;51.840;12.184;2023-04-22T10:17:14;18.30;;;17.90;;
2892;SDS011;1456;51.840;12.184;2023-04-22T10:19:44;18.00;;;17.60;;
2892;SDS011;1456;51.840;12.184;2023-04-22T10:22:12;12.20;;;11.90;;
2892;SDS011;1456;51.840;12.184;2023-04-22T10:27:20;19.40;;;18.90;;
2892;SDS011;1456;51.840;12.184;2023-04-22T10:29:46;17.40;;;16.90;;
2892;SDS011;1456;51.840;12.184;2023-04-22T10:34:45;18.27;;;17.87;;
2892;SDS011;1456;51.840;12.184;2023-04-22T10:37:12;11.40;;;11.10;;
2892;SDS011;1456;51.840;12.184;2023-04-22T10:39:39;15.83;;;14.90;;
2892;SDS011;1456;51.840;12.184;2023-04-22T10:44:54;17.90;;;17.50;;
2892;SDS011;1456;51.840;12.184;2023-04-22T10:47:28;18.70;;;18.17;;
2892;SDS011;1456;51.840;12.184;2023-04-22T10:50:09;11.77;;;11.50;;
2892;SDS011;1456;51.840;12.184;2023-04-22T10:52:50;11.50;;;11.20;;
2892;SDS011;1456;51.840;12.184;2023-04-22T10:55:20;19.00;;;18.40;;
2892;SDS011;1456;51.840;12.184;2023-04-22T10:57:49;17.93;;;17.53;;
2892;SDS011;1456;51.840;12.184;2023-04-22T11:00:50;18.33;;;17.70;;
2892;SDS011;1456;51.840;12.184;2023-04-22T11:03:11;11.30;;;11.10;;
2892;SDS011;1456;51.840;12.184;2023-04-22T11:05:38;18.47;;;18.00;;
2892;SDS011;1456;51.840;12.184;2023-04-22T11:10:48;20.00;;;19.50;;
2892;SDS011;1456;51.840;12.184;2023-04-22T11:13:19;11.80;;;11.50;;
2892;SDS011;1456;51.840;12.184;2023-04-22T11:18:19;20.37;;;19.87;;
2892;SDS011;1456;51.840;12.184;2023-04-22T11:20:46;20.73;;;20.23;;
2892;SDS011;1456;51.840;12.184;2023-04-22T11:23:17;12.30;;;11.90;;
2892;SDS011;1456;51.840;12.184;2023-04-22T11:25:52;12.07;;;11.77;;
2892;SDS011;1456;51.840;12.184;2023-04-22T11:28:22;22.50;;;21.90;;
2892;SDS011;1456;51.840;12.184;2023-04-22T11:30:49;22.10;;;21.50;;
2892;SDS011;1456;51.840;12.184;2023-04-22T11:33:38;20.50;;;20.00;;
2892;SDS011;1456;51.840;12.184;2023-04-22T11:36:14;12.43;;;11.93;;
2892;SDS011;1456;51.840;12.184;2023-04-22T11:38:40;20.80;;;20.17;;
2892;SDS011;1456;51.840;12.184;2023-04-22T11:41:06;21.63;;;20.57;;
2892;SDS011;1456;51.840;12.184;2023-04-22T11:43:32;21.63;;;21.03;;
2892;SDS011;1456;51.840;12.184;2023-04-22T11:46:00;12.47;;;12.17;;
2892;SDS011;1456;51.840;12.184;2023-04-22T11:48:25;12.00;;;11.70;;
2892;SDS011;1456;51.840;12.184;2023-04-22T11:51:05;16.53;;;16.13;;
2892;SDS011;1456;51.840;12.184;2023-04-22T11:53:34;17.30;;;16.80;;
2892;SDS011;1456;51.840;12.184;2023-04-22T11:56:02;12.30;;;12.10;;
2892;SDS011;1456;51.840;12.184;2023-04-22T11:58:29;11.17;;;10.97;;
2892;SDS011;1456;51.840;12.184;2023-04-22T12:00:56;15.77;;;15.33;;
2892;SDS011;1456;51.840;12.184;2023-04-22T12:03:24;19.17;;;18.67;;
2892;SDS011;1456;51.840;12.184;2023-04-22T12:06:01;12.13;;;11.63;;
2892;SDS011;1456;51.840;12.184;2023-04-22T12:08:32;11.80;;;11.50;;
2892;SDS011;1456;51.840;12.184;2023-04-22T12:11:07;19.53;;;19.03;;
2892;SDS011;1456;51.840;12.184;2023-04-22T12:13:41;18.50;;;18.10;;
2892;SDS011;1456;51.840;12.184;2023-04-22T12:16:10;12.10;;;11.80;;
2892;SDS011;1456;51.840;12.184;2023-04-22T12:18:38;12.10;;;11.70;;
2892;SDS011;1456;51.840;12.184;2023-04-22T12:21:22;19.27;;;18.77;;
2892;SDS011;1456;51.840;12.184;2023-04-22T12:23:53;19.40;;;18.90;;
2892;SDS011;1456;51.840;12.184;2023-04-22T12:26:22;12.50;;;12.10;;
2892;SDS011;1456;51.840;12.184;2023-04-22T12:28:50;19.20;;;18.70;;
2892;SDS011;1456;51.840;12.184;2023-04-22T12:31:16;19.43;;;18.93;;
2892;SDS011;1456;51.840;12.184;2023-04-22T12:33:46;17.10;;;16.23;;
2892;SDS011;1456;51.840;12.184;2023-04-22T12:36:12;12.70;;;12.40;;
2892;SDS011;1456;51.840;12.184;2023-04-22T12:38:38;20.17;;;19.60;;
2892;SDS011;1456;51.840;12.184;2023-04-22T12:41:06;19.93;;;19.40;;
2892;SDS011;1456;51.840;12.184;2023-04-22T12:43:32;19.73;;;19.23;;
2892;SDS011;1456;51.840;12.184;2023-04-22T12:46:01;12.47;;;12.17;;
2892;SDS011;1456;51.840;12.184;2023-04-22T12:48:28;21.93;;;21.23;;
2892;SDS011;1456;51.840;12.184;2023-04-22T12:50:54;19.87;;;19.37;;
2892;SDS011;1456;51.840;12.184;2023-04-22T12:53:22;12.60;;;12.30;;
2892;SDS011;1456;51.840;12.184;2023-04-22T12:55:50;13.20;;;12.70;;
2892;SDS011;1456;51.840;12.184;2023-04-22T12:58:16;20.00;;;19.50;;
2892;SDS011;1456;51.840;12.184;2023-04-22T13:00:44;21.00;;;20.50;;
2892;SDS011;1456;51.840;12.184;2023-04-22T13:03:10;13.00;;;12.60;;
2892;SDS011;1456;51.840;12.184;2023-04-22T13:05:36;21.30;;;20.77;;
2892;SDS011;1456;51.840;12.184;2023-04-22T13:08:03;20.43;;;19.93;;
2892;SDS011;1456;51.840;12.184;2023-04-22T13:10:29;22.30;;;21.60;;
2892;SDS011;1456;51.840;12.184;2023-04-22T13:12:56;12.33;;;12.03;;
2892;SDS011;1456;51.840;12.184;2023-04-22T13:15:22;20.40;;;19.90;;
2892;SDS011;1456;51.840;12.184;2023-04-22T13:17:50;18.87;;;18.47;;
2892;SDS011;1456;51.840;12.184;2023-04-22T13:20:17;18.60;;;18.20;;
2892;SDS011;1456;51.840;12.184;2023-04-22T13:22:44;10.43;;;10.13;;
2892;SDS011;1456;51.840;12.184;2023-04-22T13:25:13;19.13;;;18.63;;
2892;SDS011;1456;51.840;12.184;2023-04-22T13:27:38;19.23;;;18.73;;
2892;SDS011;1456;51.840;12.184;2023-04-22T13:30:07;11.13;;;10.93;;
2892;SDS011;1456;51.840;12.184;2023-04-22T13:32:33;11.03;;;10.83;;
2892;SDS011;1456;51.840;12.184;2023-04-22T13:34:59;19.50;;;19.00;;
2892;SDS011;1456;51.840;12.184;2023-04-22T13:37:25;20.30;;;19.80;;
2892;SDS011;1456;51.840;12.184;2023-04-22T13:39:51;11.10;;;10.90;;
2892;SDS011;1456;51.840;12.184;2023-04-22T13:42:18;13.43;;;13.03;;
2892;SDS011;1456;51.840;12.184;2023-04-22T13:44:45;20.20;;;19.60;;
2892;SDS011;1456;51.840;12.184;2023-04-22T13:47:14;20.90;;;20.30;;
2892;SDS011;1456;51.840;12.184;2023-04-22T13:49:40;11.40;;;11.20;;
2892;SDS011;1456;51.840;12.184;2023-04-22T13:52:06;13.37;;;12.97;;
2892;SDS011;1456;51.840;12.184;2023-04-22T13:54:32;19.10;;;18.60;;
2892;SDS011;1456;51.840;12.184;2023-04-22T13:56:57;19.73;;;19.20;;
2892;SDS011;1456;51.840;12.184;2023-04-22T13:59:23;11.77;;;11.43;;
2892;SDS011;1456;51.840;12.184;2023-04-22T14:01:50;19.97;;;19.47;;
2892;SDS011;1456;51.840;12.184;2023-04-22T14:04:16;20.47;;;19.97;;
2892;SDS011;1456;51.840;12.184;2023-04-22T14:06:42;19.03;;;18.53;;
2892;SDS011;1456;51.840;12.184;2023-04-22T14:09:08;11.50;;;11.30;;
2892;SDS011;1456;51.840;12.184;2023-04-22T14:11:34;24.30;;;23.70;;
2892;SDS011;1456;51.840;12.184;2023-04-22T14:14:00;24.73;;;24.03;;
2892;SDS011;1456;51.840;12.184;2023-04-22T14:16:25;12.43;;;12.13;;
2892;SDS011;1456;51.840;12.184;2023-04-22T14:18:52;23.83;;;23.20;;
2892;SDS011;1456;51.840;12.184;2023-04-22T14:21:19;23.40;;;22.80;;
2892;SDS011;1456;51.840;12.184;2023-04-22T14:23:46;18.43;;;17.93;;
2892;SDS011;1456;51.840;12.184;2023-04-22T14:26:13;12.33;;;11.90;;
2892;SDS011;1456;51.840;12.184;2023-04-22T14:28:45;20.90;;;20.40;;
2892;SDS011;1456;51.840;12.184;2023-04-22T14:31:16;19.40;;;18.90;;
2892;SDS011;1456;51.840;12.184;2023-04-22T14:33:45;11.63;;;11.33;;
2892;SDS011;1456;51.840;12.184;2023-04-22T14:36:11;11.90;;;11.30;;
2892;SDS011;1456;51.840;12.184;2023-04-22T14:38:36;19.17;;;18.67;;
2892;SDS011;1456;51.840;12.184;2023-04-22T14:41:02;19.00;;;18.50;;
2892;SDS011;1456;51.840;12.184;2023-04-22T14:43:30;11.63;;;11.33;;
2892;SDS011;1456;51.840;12.184;2023-04-22T14:45:55;20.20;;;19.63;;
2892;SDS011;1456;51.840;12.184;2023-04-22T14:48:21;19.10;;;18.53;;
2892;SDS011;1456;51.840;12.184;2023-04-22T14:50:50;18.43;;;17.93;;
2892;SDS011;1456;51.840;12.184;2023-04-22T14:53:16;10.70;;;10.50;;
2892;SDS011;1456;51.840;12.184;2023-04-22T14:55:44;21.17;;;20.40;;
2892;SDS011;1456;51.840;12.184;2023-04-22T14:58:11;19.10;;;18.70;;
2892;SDS011;1456;51.840;12.184;2023-04-22T15:00:38;10.90;;;10.70;;
2892;SDS011;1456;51.840;12.184;2023-04-22T15:03:06;12.13;;;11.93;;
2892;SDS011;1456;51.840;12.184;2023-04-22T15:05:32;17.73;;;17.20;;
2892;SDS011;1456;51.840;12.184;2023-04-22T15:07:58;21.17;;;19.47;;
2892;SDS011;1456;51.840;12.184;2023-04-22T15:10:26;11.40;;;11.20;;
2892;SDS011;1456;51.840;12.184;2023-04-22T15:12:52;19.37;;;18.87;;
2892;SDS011;1456;51.840;12.184;2023-04-22T15:15:20;20.40;;;19.90;;
2892;SDS011;1456;51.840;12.184;2023-04-22T15:17:45;18.17;;;17.77;;
2892;SDS011;1456;51.840;12.184;2023-04-22T15:20:11;10.90;;;10.70;;
2892;SDS011;1456;51.840;12.184;2023-04-22T15:22:38;19.50;;;19.00;;
2892;SDS011;1456;51.840;12.184;2023-04-22T15:25:08;20.60;;;20.10;;